sensor_id;sensor_type;location;lat;lon;timestamp;temperature;humidity
78571;SHT31;67861;51.966;5.672;2023-04-03T00:02:23;7.6;51.9
78571;SHT31;67861;51.966;5.672;2023-04-03T00:04:53;7.6;51.8
78571;SHT31;67861;51.966;5.672;2023-04-03T00:07:22;7.5;51.7
78571;SHT31;67861;51.966;5.672;2023-04-03T00:09:52;7.5;51.6
78571;SHT31;67861;51.966;5.672;2023-04-03T00:12:22;7.5;51.6
78571;SHT31;67861;51.966;5.672;2023-04-03T00:14:52;7.5;51.9
78571;SHT31;67861;51.966;5.672;2023-04-03T00:17:21;7.4;51.8
78571;SHT31;67861;51.966;5.672;2023-04-03T00:19:51;7.4;52.0
78571;SHT31;67861;51.966;5.672;2023-04-03T00:22:21;7.3;51.9
78571;SHT31;67861;51.966;5.672;2023-04-03T00:24:56;7.3;52.0
78571;SHT31;67861;51.966;5.672;2023-04-03T00:27:25;7.3;51.9
78571;SHT31;67861;51.966;5.672;2023-04-03T00:29:55;7.3;52.3
78571;SHT31;67861;51.966;5.672;2023-04-03T00:32:27;7.2;52.3
78571;SHT31;67861;51.966;5.672;2023-04-03T00:34:56;7.2;52.3
78571;SHT31;67861;51.966;5.672;2023-04-03T00:37:28;7.2;51.9
78571;SHT31;67861;51.966;5.672;2023-04-03T00:39:58;7.2;52.0
78571;SHT31;67861;51.966;5.672;2023-04-03T00:42:28;7.2;52.1
78571;SHT31;67861;51.966;5.672;2023-04-03T00:45:28;7.1;52.0
78571;SHT31;67861;51.966;5.672;2023-04-03T00:48:00;7.1;52.7
78571;SHT31;67861;51.966;5.672;2023-04-03T00:50:30;7.1;52.4
78571;SHT31;67861;51.966;5.672;2023-04-03T00:53:02;7.1;52.5
78571;SHT31;67861;51.966;5.672;2023-04-03T00:55:35;7.1;52.4
78571;SHT31;67861;51.966;5.672;2023-04-03T00:58:06;7.1;52.8
78571;SHT31;67861;51.966;5.672;2023-04-03T01:00:40;7.1;52.5
78571;SHT31;67861;51.966;5.672;2023-04-03T01:03:12;7.1;52.6
78571;SHT31;67861;51.966;5.672;2023-04-03T01:05:42;7.1;52.8
78571;SHT31;67861;51.966;5.672;2023-04-03T01:08:12;7.1;52.7
78571;SHT31;67861;51.966;5.672;2023-04-03T01:10:42;7.0;53.0
78571;SHT31;67861;51.966;5.672;2023-04-03T01:13:27;7.0;52.5
78571;SHT31;67861;51.966;5.672;2023-04-03T01:16:00;7.0;53.1
78571;SHT31;67861;51.966;5.672;2023-04-03T01:18:32;7.0;53.3
78571;SHT31;67861;51.966;5.672;2023-04-03T01:22:32;7.0;52.6
78571;SHT31;67861;51.966;5.672;2023-04-03T01:25:05;7.0;53.1
78571;SHT31;67861;51.966;5.672;2023-04-03T01:27:34;7.0;53.0
78571;SHT31;67861;51.966;5.672;2023-04-03T01:30:05;7.0;52.9
78571;SHT31;67861;51.966;5.672;2023-04-03T01:32:38;7.0;53.0
78571;SHT31;67861;51.966;5.672;2023-04-03T01:35:11;6.9;52.9
78571;SHT31;67861;51.966;5.672;2023-04-03T01:37:40;6.9;53.0
78571;SHT31;67861;51.966;5.672;2023-04-03T01:40:10;6.9;53.2
78571;SHT31;67861;51.966;5.672;2023-04-03T01:42:40;6.9;53.4
78571;SHT31;67861;51.966;5.672;2023-04-03T01:45:10;6.9;53.4
78571;SHT31;67861;51.966;5.672;2023-04-03T01:47:40;6.9;53.4
78571;SHT31;67861;51.966;5.672;2023-04-03T01:50:10;6.8;53.4
78571;SHT31;67861;51.966;5.672;2023-04-03T01:52:40;6.8;53.6
78571;SHT31;67861;51.966;5.672;2023-04-03T01:55:11;6.8;54.0
78571;SHT31;67861;51.966;5.672;2023-04-03T01:57:41;6.8;53.8
78571;SHT31;67861;51.966;5.672;2023-04-03T02:00:11;6.7;54.4
78571;SHT31;67861;51.966;5.672;2023-04-03T02:02:41;6.7;54.7
78571;SHT31;67861;51.966;5.672;2023-04-03T02:05:11;6.7;54.6
78571;SHT31;67861;51.966;5.672;2023-04-03T02:07:41;6.7;54.7
78571;SHT31;67861;51.966;5.672;2023-04-03T02:10:11;6.7;54.7
78571;SHT31;67861;51.966;5.672;2023-04-03T02:12:41;6.7;54.4
78571;SHT31;67861;51.966;5.672;2023-04-03T02:15:11;6.7;54.8
78571;SHT31;67861;51.966;5.672;2023-04-03T02:17:40;6.7;54.5
78571;SHT31;67861;51.966;5.672;2023-04-03T02:20:11;6.7;54.6
78571;SHT31;67861;51.966;5.672;2023-04-03T02:22:41;6.7;54.5
78571;SHT31;67861;51.966;5.672;2023-04-03T02:25:10;6.7;54.6
78571;SHT31;67861;51.966;5.672;2023-04-03T02:27:40;6.7;54.8
78571;SHT31;67861;51.966;5.672;2023-04-03T02:30:10;6.6;54.7
78571;SHT31;67861;51.966;5.672;2023-04-03T02:32:42;6.6;55.1
78571;SHT31;67861;51.966;5.672;2023-04-03T02:35:12;6.6;55.0
78571;SHT31;67861;51.966;5.672;2023-04-03T02:37:42;6.6;55.0
78571;SHT31;67861;51.966;5.672;2023-04-03T02:40:12;6.6;55.1
78571;SHT31;67861;51.966;5.672;2023-04-03T02:42:42;6.6;55.1
78571;SHT31;67861;51.966;5.672;2023-04-03T02:45:14;6.6;55.2
78571;SHT31;67861;51.966;5.672;2023-04-03T02:47:44;6.5;55.3
78571;SHT31;67861;51.966;5.672;2023-04-03T02:50:14;6.5;55.4
78571;SHT31;67861;51.966;5.672;2023-04-03T02:52:43;6.5;55.7
78571;SHT31;67861;51.966;5.672;2023-04-03T02:55:15;6.5;55.4
78571;SHT31;67861;51.966;5.672;2023-04-03T02:57:47;6.5;55.7
78571;SHT31;67861;51.966;5.672;2023-04-03T03:00:20;6.5;55.7
78571;SHT31;67861;51.966;5.672;2023-04-03T03:02:50;6.5;55.6
78571;SHT31;67861;51.966;5.672;2023-04-03T03:05:20;6.4;55.7
78571;SHT31;67861;51.966;5.672;2023-04-03T03:07:51;6.4;55.8
78571;SHT31;67861;51.966;5.672;2023-04-03T03:10:20;6.4;55.8
78571;SHT31;67861;51.966;5.672;2023-04-03T03:12:51;6.4;55.9
78571;SHT31;67861;51.966;5.672;2023-04-03T03:15:23;6.4;56.2
78571;SHT31;67861;51.966;5.672;2023-04-03T03:17:53;6.4;55.9
78571;SHT31;67861;51.966;5.672;2023-04-03T03:20:24;6.3;56.1
78571;SHT31;67861;51.966;5.672;2023-04-03T03:22:54;6.3;56.0
78571;SHT31;67861;51.966;5.672;2023-04-03T03:25:25;6.3;56.0
78571;SHT31;67861;51.966;5.672;2023-04-03T03:27:55;6.3;56.2
78571;SHT31;67861;51.966;5.672;2023-04-03T03:30:24;6.3;56.0
78571;SHT31;67861;51.966;5.672;2023-04-03T03:32:54;6.3;56.4
78571;SHT31;67861;51.966;5.672;2023-04-03T03:35:24;6.2;56.5
78571;SHT31;67861;51.966;5.672;2023-04-03T03:37:54;6.2;56.4
78571;SHT31;67861;51.966;5.672;2023-04-03T03:40:23;6.2;56.6
78571;SHT31;67861;51.966;5.672;2023-04-03T03:42:55;6.2;56.7
78571;SHT31;67861;51.966;5.672;2023-04-03T03:45:27;6.2;57.1
78571;SHT31;67861;51.966;5.672;2023-04-03T03:47:57;6.1;57.3
78571;SHT31;67861;51.966;5.672;2023-04-03T03:50:27;6.1;57.4
78571;SHT31;67861;51.966;5.672;2023-04-03T03:52:57;6.1;57.4
78571;SHT31;67861;51.966;5.672;2023-04-03T03:55:27;6.1;57.3
78571;SHT31;67861;51.966;5.672;2023-04-03T03:57:56;6.1;57.4
78571;SHT31;67861;51.966;5.672;2023-04-03T04:00:29;6.0;57.4
78571;SHT31;67861;51.966;5.672;2023-04-03T04:03:01;6.0;57.8
78571;SHT31;67861;51.966;5.672;2023-04-03T04:05:31;6.0;57.7
78571;SHT31;67861;51.966;5.672;2023-04-03T04:08:01;6.0;57.6
78571;SHT31;67861;51.966;5.672;2023-04-03T04:10:31;6.0;57.7
78571;SHT31;67861;51.966;5.672;2023-04-03T04:13:01;6.0;57.7
78571;SHT31;67861;51.966;5.672;2023-04-03T04:15:35;6.0;57.6
78571;SHT31;67861;51.966;5.672;2023-04-03T04:18:07;5.9;57.8
78571;SHT31;67861;51.966;5.672;2023-04-03T04:20:37;5.9;57.9
78571;SHT31;67861;51.966;5.672;2023-04-03T04:23:06;5.9;57.9
78571;SHT31;67861;51.966;5.672;2023-04-03T04:25:36;5.9;58.0
78571;SHT31;67861;51.966;5.672;2023-04-03T04:28:06;5.9;58.2
78571;SHT31;67861;51.966;5.672;2023-04-03T04:30:36;5.9;58.2
78571;SHT31;67861;51.966;5.672;2023-04-03T04:33:06;5.9;58.1
78571;SHT31;67861;51.966;5.672;2023-04-03T04:35:36;5.8;58.1
78571;SHT31;67861;51.966;5.672;2023-04-03T04:38:07;5.8;58.3
78571;SHT31;67861;51.966;5.672;2023-04-03T04:40:39;5.8;58.4
78571;SHT31;67861;51.966;5.672;2023-04-03T04:43:09;5.8;58.3
78571;SHT31;67861;51.966;5.672;2023-04-03T04:45:41;5.8;58.2
78571;SHT31;67861;51.966;5.672;2023-04-03T04:48:12;5.8;58.3
78571;SHT31;67861;51.966;5.672;2023-04-03T04:50:42;5.7;58.3
78571;SHT31;67861;51.966;5.672;2023-04-03T04:53:11;5.7;58.3
78571;SHT31;67861;51.966;5.672;2023-04-03T04:55:43;5.7;58.5
78571;SHT31;67861;51.966;5.672;2023-04-03T04:58:13;5.7;58.6
78571;SHT31;67861;51.966;5.672;2023-04-03T05:00:43;5.6;58.6
78571;SHT31;67861;51.966;5.672;2023-04-03T05:03:13;5.6;58.7
78571;SHT31;67861;51.966;5.672;2023-04-03T05:05:45;5.6;58.7
78571;SHT31;67861;51.966;5.672;2023-04-03T05:08:14;5.6;58.8
78571;SHT31;67861;51.966;5.672;2023-04-03T05:10:45;5.6;58.9
78571;SHT31;67861;51.966;5.672;2023-04-03T05:13:15;5.5;58.9
78571;SHT31;67861;51.966;5.672;2023-04-03T05:15:46;5.5;59.0
78571;SHT31;67861;51.966;5.672;2023-04-03T05:18:16;5.5;59.1
78571;SHT31;67861;51.966;5.672;2023-04-03T05:20:48;5.5;59.2
78571;SHT31;67861;51.966;5.672;2023-04-03T05:23:18;5.4;59.3
78571;SHT31;67861;51.966;5.672;2023-04-03T05:25:48;5.4;59.1
78571;SHT31;67861;51.966;5.672;2023-04-03T05:28:17;5.4;59.4
78571;SHT31;67861;51.966;5.672;2023-04-03T05:30:54;5.4;59.4
78571;SHT31;67861;51.966;5.672;2023-04-03T05:33:25;5.4;59.4
78571;SHT31;67861;51.966;5.672;2023-04-03T05:35:55;5.3;59.4
78571;SHT31;67861;51.966;5.672;2023-04-03T05:38:28;5.3;59.5
78571;SHT31;67861;51.966;5.672;2023-04-03T05:40:58;5.3;59.7
78571;SHT31;67861;51.966;5.672;2023-04-03T05:43:28;5.3;59.4
78571;SHT31;67861;51.966;5.672;2023-04-03T05:45:58;5.3;59.4
78571;SHT31;67861;51.966;5.672;2023-04-03T05:48:28;5.3;59.3
78571;SHT31;67861;51.966;5.672;2023-04-03T05:50:59;5.3;59.4
78571;SHT31;67861;51.966;5.672;2023-04-03T05:53:32;5.3;59.2
78571;SHT31;67861;51.966;5.672;2023-04-03T05:56:03;5.3;59.2
78571;SHT31;67861;51.966;5.672;2023-04-03T05:58:33;5.3;59.3
78571;SHT31;67861;51.966;5.672;2023-04-03T06:01:02;5.3;59.4
78571;SHT31;67861;51.966;5.672;2023-04-03T06:03:33;5.3;59.4
78571;SHT31;67861;51.966;5.672;2023-04-03T06:06:06;5.3;59.2
78571;SHT31;67861;51.966;5.672;2023-04-03T06:08:36;5.3;59.3
78571;SHT31;67861;51.966;5.672;2023-04-03T06:11:06;5.3;59.3
78571;SHT31;67861;51.966;5.672;2023-04-03T06:13:36;5.3;59.3
78571;SHT31;67861;51.966;5.672;2023-04-03T06:16:11;5.3;59.4
78571;SHT31;67861;51.966;5.672;2023-04-03T06:18:46;5.3;59.1
78571;SHT31;67861;51.966;5.672;2023-04-03T06:21:15;5.3;59.1
78571;SHT31;67861;51.966;5.672;2023-04-03T06:23:45;5.3;59.0
78571;SHT31;67861;51.966;5.672;2023-04-03T06:26:15;5.3;59.1
78571;SHT31;67861;51.966;5.672;2023-04-03T06:28:45;5.3;59.3
78571;SHT31;67861;51.966;5.672;2023-04-03T06:31:15;5.3;59.2
78571;SHT31;67861;51.966;5.672;2023-04-03T06:33:45;5.3;59.4
78571;SHT31;67861;51.966;5.672;2023-04-03T06:36:15;5.3;59.7
78571;SHT31;67861;51.966;5.672;2023-04-03T06:38:49;5.4;59.8
78571;SHT31;67861;51.966;5.672;2023-04-03T06:41:19;5.4;59.7
78571;SHT31;67861;51.966;5.672;2023-04-03T06:43:48;5.4;59.4
78571;SHT31;67861;51.966;5.672;2023-04-03T06:46:21;5.5;59.2
78571;SHT31;67861;51.966;5.672;2023-04-03T06:48:52;5.5;59.2
78571;SHT31;67861;51.966;5.672;2023-04-03T06:51:24;5.6;59.2
78571;SHT31;67861;51.966;5.672;2023-04-03T06:53:56;5.6;59.1
78571;SHT31;67861;51.966;5.672;2023-04-03T06:56:27;5.7;58.9
78571;SHT31;67861;51.966;5.672;2023-04-03T06:58:57;5.7;59.2
78571;SHT31;67861;51.966;5.672;2023-04-03T07:01:29;5.8;58.6
78571;SHT31;67861;51.966;5.672;2023-04-03T07:03:59;5.9;57.9
78571;SHT31;67861;51.966;5.672;2023-04-03T07:06:29;5.9;58.1
78571;SHT31;67861;51.966;5.672;2023-04-03T07:09:01;6.0;58.2
78571;SHT31;67861;51.966;5.672;2023-04-03T07:11:31;6.1;57.6
78571;SHT31;67861;51.966;5.672;2023-04-03T07:14:01;6.1;57.6
78571;SHT31;67861;51.966;5.672;2023-04-03T07:16:35;6.2;56.9
78571;SHT31;67861;51.966;5.672;2023-04-03T07:19:05;6.2;56.8
78571;SHT31;67861;51.966;5.672;2023-04-03T07:21:36;6.3;56.2
78571;SHT31;67861;51.966;5.672;2023-04-03T07:24:06;6.4;56.1
78571;SHT31;67861;51.966;5.672;2023-04-03T07:26:36;6.4;56.5
78571;SHT31;67861;51.966;5.672;2023-04-03T07:29:13;6.5;55.4
78571;SHT31;67861;51.966;5.672;2023-04-03T07:31:44;6.6;55.1
78571;SHT31;67861;51.966;5.672;2023-04-03T07:34:14;6.7;54.5
78571;SHT31;67861;51.966;5.672;2023-04-03T07:36:44;6.7;54.7
78571;SHT31;67861;51.966;5.672;2023-04-03T07:39:15;6.8;53.7
78571;SHT31;67861;51.966;5.672;2023-04-03T07:41:44;6.9;53.3
78571;SHT31;67861;51.966;5.672;2023-04-03T07:44:14;6.9;53.5
78571;SHT31;67861;51.966;5.672;2023-04-03T07:46:44;7.0;53.5
78571;SHT31;67861;51.966;5.672;2023-04-03T07:49:14;7.1;52.3
78571;SHT31;67861;51.966;5.672;2023-04-03T07:51:45;7.2;51.4
78571;SHT31;67861;51.966;5.672;2023-04-03T07:54:19;7.2;51.5
78571;SHT31;67861;51.966;5.672;2023-04-03T07:56:49;7.3;51.5
78571;SHT31;67861;51.966;5.672;2023-04-03T07:59:20;7.3;50.5
78571;SHT31;67861;51.966;5.672;2023-04-03T08:01:50;7.4;50.5
78571;SHT31;67861;51.966;5.672;2023-04-03T08:04:20;7.5;50.1
78571;SHT31;67861;51.966;5.672;2023-04-03T08:06:50;7.5;49.2
78571;SHT31;67861;51.966;5.672;2023-04-03T08:09:19;7.6;48.9
78571;SHT31;67861;51.966;5.672;2023-04-03T08:11:49;7.6;48.1
78571;SHT31;67861;51.966;5.672;2023-04-03T08:14:20;7.7;48.0
78571;SHT31;67861;51.966;5.672;2023-04-03T08:16:50;7.7;47.2
78571;SHT31;67861;51.966;5.672;2023-04-03T08:19:20;7.8;44.3
78571;SHT31;67861;51.966;5.672;2023-04-03T08:21:52;7.8;44.1
78571;SHT31;67861;51.966;5.672;2023-04-03T08:24:22;7.9;45.2
78571;SHT31;67861;51.966;5.672;2023-04-03T08:26:52;7.9;44.8
78571;SHT31;67861;51.966;5.672;2023-04-03T08:29:23;8.0;45.0
78571;SHT31;67861;51.966;5.672;2023-04-03T08:31:55;8.0;45.2
78571;SHT31;67861;51.966;5.672;2023-04-03T08:34:25;8.1;43.7
78571;SHT31;67861;51.966;5.672;2023-04-03T08:36:55;8.2;42.7
78571;SHT31;67861;51.966;5.672;2023-04-03T08:39:24;8.2;43.3
78571;SHT31;67861;51.966;5.672;2023-04-03T08:41:57;8.3;44.0
78571;SHT31;67861;51.966;5.672;2023-04-03T08:44:37;8.3;44.0
78571;SHT31;67861;51.966;5.672;2023-04-03T08:47:20;8.4;42.7
78571;SHT31;67861;51.966;5.672;2023-04-03T08:49:56;8.5;40.7
78571;SHT31;67861;51.966;5.672;2023-04-03T08:52:36;8.5;40.5
78571;SHT31;67861;51.966;5.672;2023-04-03T08:55:18;8.6;39.3
78571;SHT31;67861;51.966;5.672;2023-04-03T08:57:54;8.7;38.7
78571;SHT31;67861;51.966;5.672;2023-04-03T09:00:30;8.8;38.1
78571;SHT31;67861;51.966;5.672;2023-04-03T09:03:00;8.9;38.3
78571;SHT31;67861;51.966;5.672;2023-04-03T09:05:39;8.9;37.7
78571;SHT31;67861;51.966;5.672;2023-04-03T09:08:18;9.0;36.4
78571;SHT31;67861;51.966;5.672;2023-04-03T09:10:54;9.1;36.5
78571;SHT31;67861;51.966;5.672;2023-04-03T09:13:30;9.2;34.5
78571;SHT31;67861;51.966;5.672;2023-04-03T09:16:14;9.3;32.5
78571;SHT31;67861;51.966;5.672;2023-04-03T09:18:55;9.4;31.6
78571;SHT31;67861;51.966;5.672;2023-04-03T09:21:31;9.5;32.5
78571;SHT31;67861;51.966;5.672;2023-04-03T09:24:06;9.6;35.0
78571;SHT31;67861;51.966;5.672;2023-04-03T09:26:43;9.7;33.2
78571;SHT31;67861;51.966;5.672;2023-04-03T09:29:19;9.8;32.8
78571;SHT31;67861;51.966;5.672;2023-04-03T09:31:56;9.9;32.0
78571;SHT31;67861;51.966;5.672;2023-04-03T09:34:31;10.0;31.8
78571;SHT31;67861;51.966;5.672;2023-04-03T09:37:03;10.2;29.4
78571;SHT31;67861;51.966;5.672;2023-04-03T09:39:50;10.3;32.5
78571;SHT31;67861;51.966;5.672;2023-04-03T09:42:22;10.4;29.0
78571;SHT31;67861;51.966;5.672;2023-04-03T09:44:57;10.6;30.7
78571;SHT31;67861;51.966;5.672;2023-04-03T09:47:28;10.7;29.0
78571;SHT31;67861;51.966;5.672;2023-04-03T09:50:23;10.8;28.5
78571;SHT31;67861;51.966;5.672;2023-04-03T09:52:52;10.9;28.2
78571;SHT31;67861;51.966;5.672;2023-04-03T09:55:24;11.0;28.0
78571;SHT31;67861;51.966;5.672;2023-04-03T09:57:59;11.1;28.7
78571;SHT31;67861;51.966;5.672;2023-04-03T10:00:33;11.2;28.9
78571;SHT31;67861;51.966;5.672;2023-04-03T10:03:04;11.3;28.9
78571;SHT31;67861;51.966;5.672;2023-04-03T10:05:36;11.3;27.6
78571;SHT31;67861;51.966;5.672;2023-04-03T10:08:24;11.4;27.7
78571;SHT31;67861;51.966;5.672;2023-04-03T10:11:15;11.5;27.5
78571;SHT31;67861;51.966;5.672;2023-04-03T10:13:57;11.6;27.1
78571;SHT31;67861;51.966;5.672;2023-04-03T10:16:43;11.6;27.0
78571;SHT31;67861;51.966;5.672;2023-04-03T10:19:34;11.7;28.4
78571;SHT31;67861;51.966;5.672;2023-04-03T10:22:15;11.8;27.8
78571;SHT31;67861;51.966;5.672;2023-04-03T10:25:00;11.9;26.8
78571;SHT31;67861;51.966;5.672;2023-04-03T10:27:39;11.9;27.6
78571;SHT31;67861;51.966;5.672;2023-04-03T10:30:25;12.0;28.3
78571;SHT31;67861;51.966;5.672;2023-04-03T10:33:01;12.1;28.5
78571;SHT31;67861;51.966;5.672;2023-04-03T10:35:42;12.2;27.9
78571;SHT31;67861;51.966;5.672;2023-04-03T10:38:20;12.3;27.2
78571;SHT31;67861;51.966;5.672;2023-04-03T10:41:01;12.3;28.0
78571;SHT31;67861;51.966;5.672;2023-04-03T10:43:38;12.4;26.7
78571;SHT31;67861;51.966;5.672;2023-04-03T10:46:15;12.5;28.0
78571;SHT31;67861;51.966;5.672;2023-04-03T10:49:05;12.6;28.0
78571;SHT31;67861;51.966;5.672;2023-04-03T10:51:42;12.7;28.5
78571;SHT31;67861;51.966;5.672;2023-04-03T10:54:20;12.8;29.1
78571;SHT31;67861;51.966;5.672;2023-04-03T10:56:58;12.9;29.9
78571;SHT31;67861;51.966;5.672;2023-04-03T10:59:35;13.0;27.7
78571;SHT31;67861;51.966;5.672;2023-04-03T11:02:11;13.1;27.1
78571;SHT31;67861;51.966;5.672;2023-04-03T11:04:51;13.2;29.0
78571;SHT31;67861;51.966;5.672;2023-04-03T11:07:27;13.2;29.1
78571;SHT31;67861;51.966;5.672;2023-04-03T11:10:03;13.3;28.1
78571;SHT31;67861;51.966;5.672;2023-04-03T11:12:41;13.4;28.7
78571;SHT31;67861;51.966;5.672;2023-04-03T11:15:16;13.5;28.2
78571;SHT31;67861;51.966;5.672;2023-04-03T11:17:51;13.6;27.6
78571;SHT31;67861;51.966;5.672;2023-04-03T11:20:27;13.8;27.7
78571;SHT31;67861;51.966;5.672;2023-04-03T11:23:04;13.9;27.8
78571;SHT31;67861;51.966;5.672;2023-04-03T11:25:38;14.0;27.0
78571;SHT31;67861;51.966;5.672;2023-04-03T11:28:13;14.0;27.5
78571;SHT31;67861;51.966;5.672;2023-04-03T11:30:49;14.1;27.4
78571;SHT31;67861;51.966;5.672;2023-04-03T11:33:32;14.2;27.2
78571;SHT31;67861;51.966;5.672;2023-04-03T11:36:12;14.2;27.7
78571;SHT31;67861;51.966;5.672;2023-04-03T11:38:47;14.3;28.0
78571;SHT31;67861;51.966;5.672;2023-04-03T11:41:29;14.4;26.5
78571;SHT31;67861;51.966;5.672;2023-04-03T11:44:03;14.4;26.5
78571;SHT31;67861;51.966;5.672;2023-04-03T11:46:55;14.5;27.2
78571;SHT31;67861;51.966;5.672;2023-04-03T11:49:53;14.5;25.8
78571;SHT31;67861;51.966;5.672;2023-04-03T11:52:57;14.5;26.7
78571;SHT31;67861;51.966;5.672;2023-04-03T11:55:54;14.6;27.9
78571;SHT31;67861;51.966;5.672;2023-04-03T11:58:26;14.6;25.4
78571;SHT31;67861;51.966;5.672;2023-04-03T12:00:58;14.6;25.5
78571;SHT31;67861;51.966;5.672;2023-04-03T12:04:30;14.6;24.5
78571;SHT31;67861;51.966;5.672;2023-04-03T12:07:22;14.7;26.3
78571;SHT31;67861;51.966;5.672;2023-04-03T12:10:01;14.7;25.3
78571;SHT31;67861;51.966;5.672;2023-04-03T12:12:34;14.7;26.3
78571;SHT31;67861;51.966;5.672;2023-04-03T12:15:20;14.8;26.0
78571;SHT31;67861;51.966;5.672;2023-04-03T12:17:51;14.8;25.5
78571;SHT31;67861;51.966;5.672;2023-04-03T12:22:04;14.9;25.8
78571;SHT31;67861;51.966;5.672;2023-04-03T12:24:36;14.9;25.5
78571;SHT31;67861;51.966;5.672;2023-04-03T12:27:36;15.0;26.3
78571;SHT31;67861;51.966;5.672;2023-04-03T12:30:14;15.0;26.4
78571;SHT31;67861;51.966;5.672;2023-04-03T12:33:09;15.1;26.7
78571;SHT31;67861;51.966;5.672;2023-04-03T12:35:51;15.1;26.6
78571;SHT31;67861;51.966;5.672;2023-04-03T12:38:55;15.2;26.5
78571;SHT31;67861;51.966;5.672;2023-04-03T12:41:41;15.2;27.7
78571;SHT31;67861;51.966;5.672;2023-04-03T12:44:27;15.2;25.8
78571;SHT31;67861;51.966;5.672;2023-04-03T12:47:22;15.3;26.6
78571;SHT31;67861;51.966;5.672;2023-04-03T12:49:40;15.3;24.6
78571;SHT31;67861;51.966;5.672;2023-04-03T12:52:25;15.3;27.0
78571;SHT31;67861;51.966;5.672;2023-04-03T12:54:59;15.4;26.8
78571;SHT31;67861;51.966;5.672;2023-04-03T12:57:31;15.4;27.4
78571;SHT31;67861;51.966;5.672;2023-04-03T13:02:54;15.5;27.7
78571;SHT31;67861;51.966;5.672;2023-04-03T13:05:27;15.6;27.7
78571;SHT31;67861;51.966;5.672;2023-04-03T13:08:00;15.6;27.1
78571;SHT31;67861;51.966;5.672;2023-04-03T13:10:31;15.6;26.3
78571;SHT31;67861;51.966;5.672;2023-04-03T13:13:09;15.6;28.0
78571;SHT31;67861;51.966;5.672;2023-04-03T13:15:44;15.6;26.1
78571;SHT31;67861;51.966;5.672;2023-04-03T13:18:29;15.6;26.7
78571;SHT31;67861;51.966;5.672;2023-04-03T13:21:03;15.6;25.2
78571;SHT31;67861;51.966;5.672;2023-04-03T13:23:38;15.6;26.9
78571;SHT31;67861;51.966;5.672;2023-04-03T13:26:10;15.7;26.6
78571;SHT31;67861;51.966;5.672;2023-04-03T13:28:41;15.7;27.5
78571;SHT31;67861;51.966;5.672;2023-04-03T13:31:23;15.7;27.0
78571;SHT31;67861;51.966;5.672;2023-04-03T13:33:57;15.8;27.5
78571;SHT31;67861;51.966;5.672;2023-04-03T13:36:31;15.8;25.3
78571;SHT31;67861;51.966;5.672;2023-04-03T13:39:17;15.9;26.3
78571;SHT31;67861;51.966;5.672;2023-04-03T13:41:45;15.9;26.6
78571;SHT31;67861;51.966;5.672;2023-04-03T13:44:26;15.9;26.1
78571;SHT31;67861;51.966;5.672;2023-04-03T13:46:58;15.9;25.6
78571;SHT31;67861;51.966;5.672;2023-04-03T13:49:34;15.9;26.0
78571;SHT31;67861;51.966;5.672;2023-04-03T13:52:24;15.9;26.4
78571;SHT31;67861;51.966;5.672;2023-04-03T13:54:58;15.9;26.0
78571;SHT31;67861;51.966;5.672;2023-04-03T13:57:29;15.9;25.9
78571;SHT31;67861;51.966;5.672;2023-04-03T13:59:59;15.9;25.7
78571;SHT31;67861;51.966;5.672;2023-04-03T14:02:33;15.9;26.0
78571;SHT31;67861;51.966;5.672;2023-04-03T14:05:05;15.9;26.2
78571;SHT31;67861;51.966;5.672;2023-04-03T14:07:35;15.9;24.7
78571;SHT31;67861;51.966;5.672;2023-04-03T14:10:06;15.9;24.9
78571;SHT31;67861;51.966;5.672;2023-04-03T14:12:37;15.9;25.3
78571;SHT31;67861;51.966;5.672;2023-04-03T14:15:17;15.9;25.6
78571;SHT31;67861;51.966;5.672;2023-04-03T14:17:47;15.9;25.6
78571;SHT31;67861;51.966;5.672;2023-04-03T14:20:22;15.9;25.4
78571;SHT31;67861;51.966;5.672;2023-04-03T14:22:54;15.9;25.8
78571;SHT31;67861;51.966;5.672;2023-04-03T14:25:24;15.9;26.0
78571;SHT31;67861;51.966;5.672;2023-04-03T14:27:54;15.8;27.1
78571;SHT31;67861;51.966;5.672;2023-04-03T14:30:27;15.8;27.3
78571;SHT31;67861;51.966;5.672;2023-04-03T14:32:58;15.8;27.3
78571;SHT31;67861;51.966;5.672;2023-04-03T14:35:29;15.8;28.2
78571;SHT31;67861;51.966;5.672;2023-04-03T14:37:59;15.7;27.4
78571;SHT31;67861;51.966;5.672;2023-04-03T14:40:28;15.7;26.4
78571;SHT31;67861;51.966;5.672;2023-04-03T14:42:58;15.7;27.4
78571;SHT31;67861;51.966;5.672;2023-04-03T14:45:28;15.7;27.9
78571;SHT31;67861;51.966;5.672;2023-04-03T14:47:59;15.7;27.9
78571;SHT31;67861;51.966;5.672;2023-04-03T14:50:28;15.7;27.4
78571;SHT31;67861;51.966;5.672;2023-04-03T14:52:58;15.7;27.9
78571;SHT31;67861;51.966;5.672;2023-04-03T14:55:29;15.7;27.6
78571;SHT31;67861;51.966;5.672;2023-04-03T14:58:01;15.6;27.9
78571;SHT31;67861;51.966;5.672;2023-04-03T15:00:31;15.6;28.6
78571;SHT31;67861;51.966;5.672;2023-04-03T15:03:00;15.6;27.9
78571;SHT31;67861;51.966;5.672;2023-04-03T15:05:30;15.6;28.3
78571;SHT31;67861;51.966;5.672;2023-04-03T15:08:00;15.6;28.1
78571;SHT31;67861;51.966;5.672;2023-04-03T15:10:30;15.6;28.4
78571;SHT31;67861;51.966;5.672;2023-04-03T15:13:00;15.5;27.7
78571;SHT31;67861;51.966;5.672;2023-04-03T15:15:31;15.5;28.2
78571;SHT31;67861;51.966;5.672;2023-04-03T15:18:02;15.4;27.9
78571;SHT31;67861;51.966;5.672;2023-04-03T15:20:32;15.4;28.6
78571;SHT31;67861;51.966;5.672;2023-04-03T15:23:04;15.3;28.2
78571;SHT31;67861;51.966;5.672;2023-04-03T15:25:37;15.3;28.5
78571;SHT31;67861;51.966;5.672;2023-04-03T15:28:09;15.2;29.0
78571;SHT31;67861;51.966;5.672;2023-04-03T15:30:45;15.2;30.4
78571;SHT31;67861;51.966;5.672;2023-04-03T15:33:19;15.2;28.8
78571;SHT31;67861;51.966;5.672;2023-04-03T15:35:49;15.1;28.3
78571;SHT31;67861;51.966;5.672;2023-04-03T15:38:19;15.1;28.8
78571;SHT31;67861;51.966;5.672;2023-04-03T15:40:49;15.0;28.4
78571;SHT31;67861;51.966;5.672;2023-04-03T15:43:19;15.0;29.4
78571;SHT31;67861;51.966;5.672;2023-04-03T15:45:49;15.0;29.8
78571;SHT31;67861;51.966;5.672;2023-04-03T15:48:20;15.0;29.3
78571;SHT31;67861;51.966;5.672;2023-04-03T15:50:49;14.9;28.2
78571;SHT31;67861;51.966;5.672;2023-04-03T15:53:19;14.9;28.2
78571;SHT31;67861;51.966;5.672;2023-04-03T15:55:49;14.9;27.9
78571;SHT31;67861;51.966;5.672;2023-04-03T15:58:18;14.8;28.3
78571;SHT31;67861;51.966;5.672;2023-04-03T16:00:48;14.8;28.3
78571;SHT31;67861;51.966;5.672;2023-04-03T16:03:21;14.7;27.9
78571;SHT31;67861;51.966;5.672;2023-04-03T16:05:51;14.7;28.2
78571;SHT31;67861;51.966;5.672;2023-04-03T16:08:22;14.6;29.2
78571;SHT31;67861;51.966;5.672;2023-04-03T16:10:52;14.6;29.1
78571;SHT31;67861;51.966;5.672;2023-04-03T16:13:22;14.5;29.8
78571;SHT31;67861;51.966;5.672;2023-04-03T16:15:51;14.5;29.3
78571;SHT31;67861;51.966;5.672;2023-04-03T16:18:21;14.4;30.4
78571;SHT31;67861;51.966;5.672;2023-04-03T16:20:52;14.4;30.4
78571;SHT31;67861;51.966;5.672;2023-04-03T16:23:22;14.4;30.3
78571;SHT31;67861;51.966;5.672;2023-04-03T16:25:52;14.3;30.0
78571;SHT31;67861;51.966;5.672;2023-04-03T16:28:24;14.3;32.1
78571;SHT31;67861;51.966;5.672;2023-04-03T16:30:55;14.3;30.1
78571;SHT31;67861;51.966;5.672;2023-04-03T16:33:25;14.3;30.0
78571;SHT31;67861;51.966;5.672;2023-04-03T16:35:55;14.3;30.0
78571;SHT31;67861;51.966;5.672;2023-04-03T16:38:25;14.2;29.5
78571;SHT31;67861;51.966;5.672;2023-04-03T16:40:56;14.2;30.9
78571;SHT31;67861;51.966;5.672;2023-04-03T16:43:26;14.2;30.2
78571;SHT31;67861;51.966;5.672;2023-04-03T16:45:57;14.1;30.0
78571;SHT31;67861;51.966;5.672;2023-04-03T16:48:31;14.1;30.1
78571;SHT31;67861;51.966;5.672;2023-04-03T16:51:01;14.0;30.0
78571;SHT31;67861;51.966;5.672;2023-04-03T16:53:33;14.0;30.9
78571;SHT31;67861;51.966;5.672;2023-04-03T16:56:05;13.9;30.5
78571;SHT31;67861;51.966;5.672;2023-04-03T16:58:36;13.9;30.7